createdAt,value
2022-11-28T00:01:28.548Z,4.00
2022-11-28T00:03:56.521Z,4.75
2022-11-28T00:06:25.112Z,4.75
2022-11-28T00:08:54.604Z,4.25
2022-11-28T00:11:22.537Z,4.50
2022-11-28T00:13:50.362Z,5.00
2022-11-28T00:16:21.424Z,4.50
2022-11-28T00:18:49.575Z,4.25
2022-11-28T00:21:17.454Z,4.00
2022-11-28T00:23:45.729Z,3.75
2022-11-28T00:26:16.508Z,3.75
2022-11-28T00:28:44.437Z,4.00
2022-11-28T00:31:13.990Z,4.00
2022-11-28T00:33:42.115Z,4.50
2022-11-28T00:36:10.597Z,4.75
2022-11-28T00:38:38.515Z,5.50
2022-11-28T00:41:07.220Z,4.75
2022-11-28T00:43:36.475Z,4.00
2022-11-28T00:46:04.769Z,4.00
2022-11-28T00:48:33.434Z,4.00
2022-11-28T00:51:06.667Z,4.00
2022-11-28T00:53:34.604Z,4.50
2022-11-28T00:56:04.716Z,4.75
2022-11-28T00:58:33.041Z,4.75
2022-11-28T01:01:02.389Z,3.75
2022-11-28T01:03:30.243Z,4.75
2022-11-28T01:05:58.385Z,4.50
2022-11-28T01:08:26.249Z,4.00
2022-11-28T01:10:54.080Z,4.25
2022-11-28T01:13:21.940Z,3.75
2022-11-28T01:15:50.242Z,3.75
2022-11-28T01:18:19.619Z,3.75
2022-11-28T01:20:47.511Z,4.50
2022-11-28T01:23:15.391Z,3.75
2022-11-28T01:25:43.263Z,4.00
2022-11-28T01:28:11.114Z,3.75
2022-11-28T01:30:39.095Z,4.25
2022-11-28T01:33:07.100Z,3.75
2022-11-28T01:35:36.626Z,3.75
2022-11-28T01:38:04.850Z,4.00
2022-11-28T01:40:32.692Z,4.00
2022-11-28T01:43:00.548Z,4.25
2022-11-28T01:45:30.103Z,3.50
2022-11-28T01:47:59.278Z,3.75
2022-11-28T01:50:27.176Z,3.75
2022-11-28T01:52:57.403Z,3.75
2022-11-28T01:55:26.666Z,3.75
2022-11-28T01:57:54.570Z,3.75
2022-11-28T02:00:22.914Z,4.25
2022-11-28T02:02:51.578Z,3.50
2022-11-28T02:05:20.639Z,3.75
2022-11-28T02:07:48.640Z,4.25
2022-11-28T02:10:19.212Z,4.00
2022-11-28T02:13:04.533Z,3.75
2022-11-28T02:15:47.614Z,4.00
2022-11-28T02:18:24.073Z,4.00
2022-11-28T02:21:25.020Z,3.75
2022-11-28T02:24:23.969Z,4.00
2022-11-28T02:27:18.734Z,3.00
2022-11-28T02:30:14.552Z,4.00
2022-11-28T02:33:10.040Z,3.25
2022-11-28T02:35:42.409Z,3.50
2022-11-28T02:38:14.196Z,4.00
2022-11-28T02:40:46.110Z,4.00
2022-11-28T02:43:17.040Z,3.00
2022-11-28T02:46:00.391Z,2.75
2022-11-28T02:48:32.591Z,4.00
2022-11-28T02:51:02.517Z,3.50
2022-11-28T02:53:30.957Z,4.00
2022-11-28T02:55:59.300Z,3.00
2022-11-28T02:58:27.297Z,3.00
2022-11-28T03:00:55.364Z,3.75
2022-11-28T03:03:49.099Z,3.75
2022-11-28T03:06:20.920Z,4.00
2022-11-28T03:08:58.100Z,4.00
2022-11-28T03:11:37.581Z,3.75
2022-11-28T03:14:08.754Z,3.00
2022-11-28T03:16:39.181Z,3.75
2022-11-28T03:19:11.230Z,2.75
2022-11-28T03:21:40.790Z,3.25
2022-11-28T03:24:13.983Z,4.75
2022-11-28T03:26:46.488Z,3.75
2022-11-28T03:29:16.539Z,4.00
2022-11-28T03:31:46.311Z,3.00
2022-11-28T03:34:16.836Z,3.75
2022-11-28T03:36:46.141Z,2.75
2022-11-28T03:39:17.204Z,3.75
2022-11-28T03:41:46.849Z,3.00
2022-11-28T03:44:18.064Z,3.25
2022-11-28T03:46:48.390Z,3.75
2022-11-28T03:49:20.920Z,3.50
2022-11-28T03:51:50.503Z,4.25
2022-11-28T03:54:20.883Z,4.50
2022-11-28T03:56:51.430Z,3.75
2022-11-28T03:59:21.318Z,3.50
2022-11-28T04:01:52.544Z,3.75
2022-11-28T04:04:26.549Z,3.50
2022-11-28T04:06:55.218Z,3.75
2022-11-28T04:09:29.065Z,3.75
2022-11-28T04:11:57.902Z,4.25
2022-11-28T04:14:29.480Z,3.50
2022-11-28T04:16:59.571Z,3.75
2022-11-28T04:19:30.663Z,3.50
2022-11-28T04:22:00.140Z,4.00
2022-11-28T04:24:29.757Z,3.75
2022-11-28T04:27:00.758Z,3.50
2022-11-28T04:29:28.714Z,4.25
2022-11-28T04:31:58.283Z,3.00
2022-11-28T04:34:26.306Z,3.25
2022-11-28T04:36:55.870Z,3.50
2022-11-28T04:39:24.571Z,3.50
2022-11-28T04:41:54.221Z,3.50
2022-11-28T04:44:24.143Z,4.25
2022-11-28T04:46:54.151Z,3.50
2022-11-28T04:49:22.008Z,3.50
2022-11-28T04:51:51.534Z,2.75
2022-11-28T04:54:24.130Z,2.75
2022-11-28T04:56:55.371Z,4.00
2022-11-28T04:59:23.279Z,3.75
2022-11-28T05:01:51.214Z,3.75
2022-11-28T05:04:19.106Z,3.75
2022-11-28T05:06:47.255Z,3.75
2022-11-28T05:09:15.166Z,4.00
2022-11-28T05:11:44.833Z,2.75
2022-11-28T05:14:12.708Z,3.00
2022-11-28T05:16:40.937Z,2.75
2022-11-28T05:19:09.004Z,3.75
2022-11-28T05:21:36.896Z,3.00
2022-11-28T05:24:05.810Z,3.50
2022-11-28T05:26:35.365Z,2.75
2022-11-28T05:29:04.618Z,3.75
2022-11-28T05:31:32.606Z,4.00
2022-11-28T05:34:00.693Z,3.75
2022-11-28T05:36:32.617Z,4.75
2022-11-28T05:39:00.587Z,4.75
2022-11-28T05:41:29.498Z,4.75
2022-11-28T05:43:57.492Z,4.75
2022-11-28T05:46:27.110Z,4.75
2022-11-28T05:48:55.001Z,5.75
2022-11-28T05:51:23.102Z,6.00
2022-11-28T05:53:51.317Z,6.00
2022-11-28T05:56:20.653Z,6.50
2022-11-28T05:58:48.615Z,6.25
2022-11-28T06:01:17.533Z,6.75
2022-11-28T06:03:46.845Z,6.75
2022-11-28T06:06:16.119Z,6.75
2022-11-28T06:08:44.074Z,6.50
2022-11-28T06:11:12.190Z,6.00
2022-11-28T06:13:40.087Z,5.75
2022-11-28T06:16:09.572Z,5.75
2022-11-28T06:18:37.604Z,6.75
2022-11-28T06:21:07.323Z,5.75
2022-11-28T06:23:35.274Z,5.75
2022-11-28T06:26:05.684Z,6.00
2022-11-28T06:28:33.587Z,6.75
2022-11-28T06:31:01.540Z,7.00
2022-11-28T06:33:29.616Z,7.00
2022-11-28T06:36:00.596Z,7.50
2022-11-28T06:38:32.920Z,8.75
2022-11-28T06:41:01.201Z,8.50
2022-11-28T06:43:29.122Z,9.00
2022-11-28T06:45:57.285Z,8.50
2022-11-28T06:48:25.289Z,7.50
2022-11-28T06:50:53.284Z,8.75
2022-11-28T06:53:21.304Z,9.50
2022-11-28T06:55:50.872Z,7.75
2022-11-28T06:58:18.804Z,8.75
2022-11-28T07:00:46.729Z,8.00
2022-11-28T07:03:14.653Z,8.75
2022-11-28T07:05:42.858Z,7.75
2022-11-28T07:08:11.157Z,8.75
2022-11-28T07:10:39.568Z,8.75
2022-11-28T07:13:09.919Z,8.50
2022-11-28T07:15:38.056Z,7.25
2022-11-28T07:18:06.233Z,8.00
2022-11-28T07:20:34.078Z,7.75
2022-11-28T07:23:01.909Z,7.50
2022-11-28T07:25:31.084Z,8.75
2022-11-28T07:27:58.931Z,7.50
2022-11-28T07:30:28.304Z,8.00
2022-11-28T07:32:56.195Z,7.25
2022-11-28T07:35:24.064Z,8.50
2022-11-28T07:37:51.957Z,8.00
2022-11-28T07:40:20.701Z,8.00
2022-11-28T07:42:49.083Z,7.50
2022-11-28T07:45:17.422Z,7.50
2022-11-28T07:47:46.746Z,7.75
2022-11-28T07:50:14.615Z,6.50
2022-11-28T07:52:42.510Z,7.00
2022-11-28T07:55:11.527Z,7.75
2022-11-28T07:57:39.434Z,7.75
2022-11-28T08:00:10.723Z,6.75
2022-11-28T08:02:39.852Z,6.50
2022-11-28T08:05:10.514Z,7.75
2022-11-28T08:07:39.079Z,7.00
2022-11-28T08:10:08.445Z,6.75
2022-11-28T08:12:36.276Z,6.75
2022-11-28T08:15:04.465Z,7.00
2022-11-28T08:17:32.339Z,6.00
2022-11-28T08:20:00.230Z,7.50
2022-11-28T08:22:29.574Z,6.25
2022-11-28T08:24:57.468Z,6.50
2022-11-28T08:27:25.617Z,6.75
2022-11-28T08:29:54.275Z,6.50
2022-11-28T08:32:22.342Z,5.75
2022-11-28T08:34:50.194Z,5.75
2022-11-28T08:37:18.386Z,6.50
2022-11-28T08:39:47.638Z,6.00
2022-11-28T08:42:15.494Z,6.00
2022-11-28T08:44:43.375Z,6.75
2022-11-28T08:47:11.571Z,6.25
2022-11-28T08:49:39.914Z,5.75
2022-11-28T08:52:08.049Z,5.25
2022-11-28T08:54:35.956Z,6.25
2022-11-28T08:57:05.591Z,5.75
2022-11-28T08:59:33.488Z,6.00
2022-11-28T09:02:01.344Z,6.50
2022-11-28T09:04:29.872Z,6.50
2022-11-28T09:06:58.073Z,6.00
2022-11-28T09:09:30.177Z,5.75
2022-11-28T09:12:00.468Z,5.75
2022-11-28T09:14:29.727Z,6.00
2022-11-28T09:16:58.017Z,5.25
2022-11-28T09:19:26.019Z,5.50
2022-11-28T09:21:57.703Z,6.25
2022-11-28T09:24:25.999Z,5.75
2022-11-28T09:26:54.169Z,5.75
2022-11-28T09:29:22.082Z,5.00
2022-11-28T09:31:51.362Z,5.00
2022-11-28T09:34:19.275Z,5.00
2022-11-28T09:36:47.223Z,5.50
2022-11-28T09:39:15.110Z,5.25
2022-11-28T09:41:53.576Z,5.25
2022-11-28T09:44:23.290Z,5.75
2022-11-28T09:46:54.217Z,5.50
2022-11-28T09:49:35.324Z,5.75
2022-11-28T09:52:10.632Z,5.25
2022-11-28T09:54:42.795Z,5.75
2022-11-28T09:57:14.011Z,5.00
2022-11-28T09:59:42.285Z,5.00
2022-11-28T10:02:20.013Z,5.25
2022-11-28T10:04:50.270Z,5.50
2022-11-28T10:07:20.779Z,4.50
2022-11-28T10:09:57.409Z,5.75
2022-11-28T10:12:33.373Z,4.75
2022-11-28T10:15:18.916Z,4.75
2022-11-28T10:17:51.154Z,3.75
2022-11-28T10:20:20.616Z,5.75
2022-11-28T10:22:51.553Z,5.00
2022-11-28T10:25:20.274Z,5.00
2022-11-28T10:27:48.572Z,5.75
2022-11-28T10:30:20.220Z,4.50
2022-11-28T10:32:52.611Z,5.00
2022-11-28T10:35:28.402Z,4.75
2022-11-28T10:37:56.709Z,5.75
2022-11-28T10:40:28.853Z,5.50
2022-11-28T10:42:59.330Z,4.75
2022-11-28T10:45:30.168Z,4.75
2022-11-28T10:48:37.880Z,6.50
2022-11-28T10:51:02.459Z,5.00
2022-11-28T10:53:38.831Z,5.00
2022-11-28T10:56:13.950Z,4.50
2022-11-28T10:58:45.051Z,4.75
2022-11-28T11:01:12.995Z,5.25
2022-11-28T11:03:42.704Z,3.25
2022-11-28T11:06:11.329Z,5.00
2022-11-28T11:08:39.865Z,4.75
2022-11-28T11:11:14.913Z,5.00
2022-11-28T11:13:57.664Z,4.75
2022-11-28T11:16:25.652Z,4.25
2022-11-28T11:18:55.942Z,5.00
2022-11-28T11:21:24.701Z,4.25
2022-11-28T11:24:13.487Z,4.00
2022-11-28T11:26:42.273Z,4.50
2022-11-28T11:29:23.490Z,4.25
2022-11-28T11:31:52.020Z,4.75
2022-11-28T11:34:22.592Z,4.75
2022-11-28T11:36:50.938Z,4.75
2022-11-28T11:39:23.063Z,4.75
2022-11-28T11:41:51.589Z,4.75
2022-11-28T11:44:34.792Z,4.75
2022-11-28T11:47:05.182Z,3.75
2022-11-28T11:49:35.630Z,5.00
2022-11-28T11:52:04.876Z,3.00
2022-11-28T11:54:32.778Z,4.75
2022-11-28T11:57:30.821Z,4.75
2022-11-28T11:59:50.219Z,6.00
2022-11-28T12:02:22.733Z,4.75
2022-11-28T12:04:55.643Z,4.00
2022-11-28T12:07:26.171Z,3.75
2022-11-28T12:09:54.800Z,4.75
2022-11-28T12:12:23.615Z,3.75
2022-11-28T12:14:51.512Z,4.75
2022-11-28T12:17:47.747Z,4.75
2022-11-28T12:20:32.213Z,4.75
2022-11-28T12:23:04.887Z,3.75
2022-11-28T12:25:35.263Z,4.75
2022-11-28T12:28:07.092Z,4.75
2022-11-28T12:30:44.736Z,3.75
2022-11-28T12:33:20.347Z,3.75
2022-11-28T12:36:05.107Z,4.75
2022-11-28T12:38:39.812Z,3.75
2022-11-28T12:41:15.373Z,4.75
2022-11-28T12:43:52.777Z,4.75
2022-11-28T12:46:24.398Z,4.75
2022-11-28T12:48:59.801Z,4.00
2022-11-28T12:51:35.456Z,4.75
2022-11-28T12:54:11.619Z,5.00
2022-11-28T12:56:45.425Z,4.25
2022-11-28T12:59:19.086Z,3.75
2022-11-28T13:01:54.919Z,4.75
2022-11-28T13:04:35.302Z,3.75
2022-11-28T13:07:08.151Z,3.75
2022-11-28T13:09:37.224Z,3.75
2022-11-28T13:12:13.761Z,4.75
2022-11-28T13:14:47.091Z,4.75
2022-11-28T13:17:21.648Z,3.75
2022-11-28T13:19:51.984Z,4.25
2022-11-28T13:22:23.635Z,3.75
2022-11-28T13:24:55.669Z,3.75
2022-11-28T13:27:32.406Z,3.75
2022-11-28T13:30:04.223Z,4.75
2022-11-28T13:32:35.318Z,4.75
2022-11-28T13:35:03.737Z,4.75
2022-11-28T13:40:27.700Z,4.00
2022-11-28T13:43:06.396Z,3.75
2022-11-28T13:45:36.720Z,3.75
2022-11-28T13:51:30.957Z,4.00
2022-11-28T13:54:43.856Z,3.75
2022-11-28T13:57:19.296Z,4.00
2022-11-28T13:59:49.761Z,4.50
2022-11-28T14:02:21.136Z,3.50
2022-11-28T14:04:49.575Z,3.75
2022-11-28T14:07:23.217Z,3.00
2022-11-28T14:09:54.885Z,3.00
2022-11-28T14:12:24.777Z,3.75
2022-11-28T14:15:15.969Z,4.75
2022-11-28T14:17:51.866Z,3.75
2022-11-28T14:20:24.240Z,2.75
2022-11-28T14:23:00.285Z,3.75
2022-11-28T14:25:28.984Z,3.50
2022-11-28T14:27:59.729Z,4.00
2022-11-28T14:30:31.815Z,3.00
2022-11-28T14:33:00.914Z,3.00
2022-11-28T14:36:14.930Z,3.50
2022-11-28T14:38:46.487Z,3.75
2022-11-28T14:41:15.299Z,3.75
2022-11-28T14:43:46.656Z,3.75
2022-11-28T14:46:32.984Z,3.75
2022-11-28T14:49:21.866Z,3.75
2022-11-28T14:52:41.970Z,3.50
2022-11-28T14:55:18.047Z,4.25
2022-11-28T14:57:57.141Z,4.25
2022-11-28T15:00:27.754Z,4.25
2022-11-28T15:03:16.456Z,3.75
2022-11-28T15:05:46.102Z,4.50
2022-11-28T15:08:38.368Z,2.75
2022-11-28T15:11:13.535Z,3.75
2022-11-28T15:13:53.920Z,3.75
2022-11-28T15:16:24.219Z,3.00
2022-11-28T15:18:54.208Z,4.00
2022-11-28T15:21:23.558Z,3.50
2022-11-28T15:23:52.857Z,4.50
2022-11-28T15:26:22.609Z,3.50
2022-11-28T15:28:50.846Z,4.00
2022-11-28T15:31:23.614Z,3.75
2022-11-28T15:33:52.762Z,4.00
2022-11-28T15:36:26.969Z,3.75
2022-11-28T15:38:54.938Z,3.00
2022-11-28T15:41:24.481Z,4.75
2022-11-28T15:43:52.442Z,3.75
2022-11-28T15:46:21.580Z,3.00
2022-11-28T15:48:51.249Z,3.75
2022-11-28T15:51:26.413Z,4.00
2022-11-28T15:53:54.294Z,3.50
2022-11-28T15:56:22.459Z,4.00
2022-11-28T15:58:51.690Z,4.00
2022-11-28T16:01:20.682Z,4.00
2022-11-28T16:03:55.344Z,3.75
2022-11-28T16:06:23.564Z,4.00
2022-11-28T16:08:53.296Z,3.00
2022-11-28T16:11:22.339Z,4.00
2022-11-28T16:13:50.246Z,3.50
2022-11-28T16:16:19.721Z,4.50
2022-11-28T16:18:49.919Z,3.00
2022-11-28T16:21:19.151Z,3.75
2022-11-28T16:23:47.063Z,4.00
2022-11-28T16:26:36.001Z,3.50
2022-11-28T16:29:13.534Z,3.75
2022-11-28T16:31:41.928Z,4.00
2022-11-28T16:34:13.101Z,3.75
2022-11-28T16:36:42.910Z,3.75
2022-11-28T16:39:15.739Z,4.00
2022-11-28T16:41:47.166Z,3.50
2022-11-28T16:44:15.587Z,4.75
2022-11-28T16:46:50.963Z,3.75
2022-11-28T16:49:35.598Z,3.75
2022-11-28T16:52:45.708Z,3.75
2022-11-28T16:55:38.784Z,3.75
2022-11-28T16:58:17.782Z,3.75
2022-11-28T17:00:47.797Z,3.75
2022-11-28T17:03:49.918Z,4.75
2022-11-28T17:06:20.960Z,3.50
2022-11-28T17:08:50.571Z,3.50
2022-11-28T17:11:20.016Z,3.75
2022-11-28T17:13:48.248Z,4.75
2022-11-28T17:16:20.113Z,4.00
2022-11-28T17:18:48.031Z,3.75
2022-11-28T17:21:16.500Z,3.50
2022-11-28T17:23:44.432Z,4.75
2022-11-28T17:26:13.724Z,4.25
2022-11-28T17:28:41.588Z,4.50
2022-11-28T17:31:11.119Z,5.75
2022-11-28T17:33:44.296Z,5.75
2022-11-28T17:36:13.278Z,5.75
2022-11-28T17:38:41.120Z,5.50
2022-11-28T17:41:14.290Z,5.75
2022-11-28T17:43:42.562Z,6.00
2022-11-28T17:46:11.270Z,6.00
2022-11-28T17:48:39.205Z,6.75
2022-11-28T17:51:07.667Z,7.00
2022-11-28T17:53:36.268Z,6.25
2022-11-28T17:56:04.218Z,7.00
2022-11-28T17:58:33.458Z,7.25
2022-11-28T18:01:01.507Z,7.50
2022-11-28T18:03:29.541Z,8.75
2022-11-28T18:05:57.710Z,6.75
2022-11-28T18:08:25.598Z,6.75
2022-11-28T18:11:03.515Z,7.75
2022-11-28T18:13:31.411Z,6.75
2022-11-28T18:16:01.033Z,6.75
2022-11-28T18:18:29.016Z,6.75
2022-11-28T18:20:56.897Z,7.50
2022-11-28T18:23:24.776Z,6.00
2022-11-28T18:25:52.709Z,7.00
2022-11-28T18:28:22.021Z,6.75
2022-11-28T18:30:50.646Z,7.00
2022-11-28T18:33:20.007Z,8.00
2022-11-28T18:35:48.227Z,6.75
2022-11-28T18:38:16.127Z,6.50
2022-11-28T18:40:44.014Z,7.50
2022-11-28T18:43:11.894Z,7.00
2022-11-28T18:45:39.841Z,6.25
2022-11-28T18:48:07.914Z,6.75
2022-11-28T18:50:37.322Z,6.75
2022-11-28T18:53:05.190Z,7.25
2022-11-28T18:55:40.395Z,7.00
2022-11-28T18:58:08.319Z,7.00
2022-11-28T19:00:36.286Z,7.00
2022-11-28T19:03:04.193Z,5.75
2022-11-28T19:05:37.834Z,6.25
2022-11-28T19:08:08.517Z,7.00
2022-11-28T19:10:38.668Z,6.50
2022-11-28T19:13:43.790Z,6.75
2022-11-28T19:16:12.692Z,6.50
2022-11-28T19:18:40.744Z,6.75
2022-11-28T19:21:08.911Z,8.00
2022-11-28T19:23:38.168Z,7.00
2022-11-28T19:26:07.221Z,6.50
2022-11-28T19:28:36.805Z,7.75
2022-11-28T19:31:09.516Z,7.50
2022-11-28T19:33:37.475Z,7.75
2022-11-28T19:36:06.023Z,7.75
2022-11-28T19:38:34.469Z,7.75
2022-11-28T19:41:07.968Z,8.50
2022-11-28T19:43:35.914Z,9.00
2022-11-28T19:46:05.181Z,10.75
2022-11-28T19:48:33.611Z,10.00
2022-11-28T19:51:01.648Z,9.75
2022-11-28T19:53:29.695Z,9.75
2022-11-28T19:55:58.782Z,9.75
2022-11-28T19:58:29.155Z,9.75
2022-11-28T20:00:57.168Z,10.00
2022-11-28T20:03:25.138Z,10.00
2022-11-28T20:05:53.288Z,10.75
2022-11-28T20:08:22.235Z,10.75
2022-11-28T20:10:50.100Z,10.75
2022-11-28T20:13:17.944Z,10.75
2022-11-28T20:15:47.464Z,10.75
2022-11-28T20:18:15.356Z,12.25
2022-11-28T20:20:43.312Z,11.75
2022-11-28T20:23:11.279Z,10.75
2022-11-28T20:25:39.494Z,14.50
2022-11-28T20:28:07.384Z,11.75
2022-11-28T20:30:37.057Z,14.50
2022-11-28T20:33:06.323Z,12.75
2022-11-28T20:35:34.514Z,12.00
2022-11-28T20:38:02.490Z,12.75
2022-11-28T20:40:30.385Z,12.75
2022-11-28T20:42:58.215Z,12.00
2022-11-28T20:45:26.448Z,13.75
2022-11-28T20:47:54.409Z,14.00
2022-11-28T20:50:23.625Z,12.75
2022-11-28T20:52:51.472Z,12.00
2022-11-28T20:55:19.673Z,13.25
2022-11-28T20:57:47.552Z,13.25
2022-11-28T21:00:16.265Z,13.75
2022-11-28T21:02:44.653Z,14.00
2022-11-28T21:05:12.799Z,13.75
2022-11-28T21:07:42.088Z,12.75
2022-11-28T21:10:10.441Z,12.25
2022-11-28T21:12:38.318Z,14.50
2022-11-28T21:15:10.069Z,13.75
2022-11-28T21:17:37.928Z,13.00
2022-11-28T21:20:07.305Z,13.50
2022-11-28T21:22:35.157Z,13.00
2022-11-28T21:25:06.367Z,12.75
2022-11-28T21:27:35.180Z,12.50
2022-11-28T21:30:03.869Z,12.50
2022-11-28T21:32:31.784Z,12.50
2022-11-28T21:35:04.114Z,12.75
2022-11-28T21:37:32.631Z,12.75
2022-11-28T21:40:00.571Z,13.00
2022-11-28T21:42:30.065Z,13.00
2022-11-28T21:44:58.212Z,14.00
2022-11-28T21:47:26.944Z,14.50
2022-11-28T21:49:55.154Z,13.25
2022-11-28T21:52:24.114Z,15.75
2022-11-28T21:54:52.744Z,13.75
2022-11-28T21:57:20.919Z,15.00
2022-11-28T21:59:50.281Z,14.00
2022-11-28T22:02:18.472Z,14.25
2022-11-28T22:04:46.746Z,15.25
2022-11-28T22:07:15.306Z,15.25
2022-11-28T22:09:43.438Z,14.25
2022-11-28T22:12:11.278Z,14.25
2022-11-28T22:14:39.166Z,15.50
2022-11-28T22:17:08.700Z,14.75
2022-11-28T22:19:36.580Z,14.50
2022-11-28T22:22:04.441Z,13.50
2022-11-28T22:24:33.086Z,15.00
2022-11-28T22:27:01.287Z,14.00
2022-11-28T22:29:29.152Z,14.50
2022-11-28T22:31:57.074Z,14.00
2022-11-28T22:34:26.355Z,14.00
2022-11-28T22:36:54.501Z,15.50
2022-11-28T22:39:22.436Z,14.75
2022-11-28T22:41:50.341Z,15.00
2022-11-28T22:44:18.371Z,13.75
2022-11-28T22:46:46.537Z,13.00
2022-11-28T22:49:14.499Z,13.25
2022-11-28T22:51:43.740Z,13.75
2022-11-28T22:54:12.485Z,14.75
2022-11-28T22:56:41.109Z,13.75
2022-11-28T22:59:12.590Z,13.00
2022-11-28T23:01:40.555Z,13.00
2022-11-28T23:04:08.457Z,13.75
2022-11-28T23:06:36.746Z,13.25
2022-11-28T23:09:06.967Z,13.75
2022-11-28T23:11:36.768Z,12.75
2022-11-28T23:14:04.671Z,11.75
2022-11-28T23:16:33.856Z,13.75
2022-11-28T23:19:02.572Z,12.00
2022-11-28T23:21:31.060Z,13.25
2022-11-28T23:23:58.961Z,12.00
2022-11-28T23:26:29.324Z,12.75
2022-11-28T23:29:00.383Z,13.00
2022-11-28T23:31:29.287Z,12.00
2022-11-28T23:33:57.259Z,12.00
2022-11-28T23:36:26.461Z,11.00
2022-11-28T23:38:55.443Z,10.75
2022-11-28T23:41:23.373Z,13.50
2022-11-28T23:43:52.744Z,12.50
2022-11-28T23:46:21.667Z,11.00
2022-11-28T23:48:50.060Z,10.75
2022-11-28T23:51:19.358Z,10.75
2022-11-28T23:53:47.243Z,12.00
2022-11-28T23:56:16.042Z,10.75
2022-11-28T23:58:43.948Z,11.75
